Califon, New Jersey
Current Conditions -  °F | °C
As of 11:53 AM on Thursday 30 Oct 2014 (Local Time) from KSMQ Reporting Station
Few Clouds Few Clouds  
Wind Chill: 55°   Ceiling: Unl
Heat Index: 55°   Visibility: 10mi
Dew Point: 38°   Wind: 12mph
Humidity: 53%   Direction: 340°NNW
Pressure: 30.01"   Gusts: NA
Location:  40.72°N, 74.84°W
Report Text: KSMQ 301553Z AUTO 34010KT 10SM FEW035 13/03 A3001 RMK AO2 SLP162 T01280033
Loading
Personal Weather Stations






























Interactive Weather Map New forecast layout! Learn more

10-Day Weather Forecast

Advertisements
Track Severe Weather on mobile